createdAt,value
2019-04-14T00:00:22.984Z,0.00
2019-04-14T00:01:22.401Z,0.00
2019-04-14T00:02:22.809Z,0.00
2019-04-14T00:03:23.495Z,0.00
2019-04-14T00:04:22.632Z,0.00
2019-04-14T00:05:23.264Z,0.00
2019-04-14T00:06:22.449Z,0.00
2019-04-14T00:07:23.039Z,0.00
2019-04-14T00:08:22.355Z,0.00
2019-04-14T00:09:22.683Z,0.00
2019-04-14T00:10:22.581Z,0.00
2019-04-14T00:11:23.329Z,0.00
2019-04-14T00:12:23.021Z,0.00
2019-04-14T00:13:22.264Z,0.00
2019-04-14T00:14:22.931Z,0.00
2019-04-14T00:15:31.044Z,0.00
2019-04-14T00:16:23.232Z,0.00
2019-04-14T00:17:22.223Z,0.00
2019-04-14T00:18:23.014Z,0.00
2019-04-14T00:19:22.231Z,0.00
2019-04-14T00:20:22.852Z,0.00
2019-04-14T00:21:22.183Z,0.00
2019-04-14T00:22:22.706Z,0.00
2019-04-14T00:23:22.156Z,0.00
2019-04-14T00:24:22.799Z,0.00
2019-04-14T00:25:22.174Z,0.00
2019-04-14T00:26:22.614Z,0.00
2019-04-14T00:27:22.113Z,0.00
2019-04-14T00:28:22.874Z,0.00
2019-04-14T00:29:22.094Z,0.00
2019-04-14T00:30:23.029Z,0.00
2019-04-14T00:31:22.066Z,0.00
2019-04-14T00:32:22.705Z,0.00
2019-04-14T00:33:22.044Z,0.00
2019-04-14T00:34:22.447Z,0.00
2019-04-14T00:35:23.057Z,0.00
2019-04-14T00:36:22.012Z,0.00
2019-04-14T00:37:22.737Z,0.00
2019-04-14T00:38:21.990Z,0.00
2019-04-14T00:39:22.669Z,0.00
2019-04-14T00:40:21.967Z,0.00
2019-04-14T00:41:34.540Z,0.00
2019-04-14T00:42:23.419Z,0.00
2019-04-14T00:43:22.094Z,0.00
2019-04-14T00:44:23.024Z,0.00
2019-04-14T00:45:33.954Z,0.00
2019-04-14T00:46:23.264Z,0.00
2019-04-14T00:47:22.205Z,0.00
2019-04-14T00:48:22.928Z,0.00
2019-04-14T00:49:22.180Z,0.00
2019-04-14T00:50:21.890Z,0.00
2019-04-14T00:51:22.119Z,0.00
2019-04-14T00:52:21.868Z,0.00
2019-04-14T00:53:22.863Z,0.00
2019-04-14T00:54:21.842Z,0.00
2019-04-14T00:55:22.586Z,0.00
2019-04-14T00:56:21.792Z,0.00
2019-04-14T00:57:22.401Z,0.00
2019-04-14T00:58:21.782Z,0.00
2019-04-14T00:59:22.240Z,0.00
2019-04-14T01:00:21.960Z,0.00
2019-04-14T01:01:21.938Z,0.00
2019-04-14T01:02:21.738Z,0.00
2019-04-14T01:03:22.000Z,0.00
2019-04-14T01:04:22.915Z,0.00
2019-04-14T01:05:21.808Z,0.00
2019-04-14T01:06:22.845Z,0.00
2019-04-14T01:07:21.680Z,0.00
2019-04-14T01:08:22.725Z,0.00
2019-04-14T01:09:21.686Z,0.00
2019-04-14T01:10:21.644Z,0.00
2019-04-14T01:11:22.435Z,0.00
2019-04-14T01:12:21.625Z,0.00
2019-04-14T01:13:22.161Z,0.00
2019-04-14T01:14:21.614Z,0.00
2019-04-14T01:15:22.239Z,0.00
2019-04-14T01:16:23.855Z,0.00
2019-04-14T01:17:22.018Z,0.00
2019-04-14T01:18:21.555Z,0.00
2019-04-14T01:19:22.001Z,0.00
2019-04-14T01:20:21.538Z,0.00
2019-04-14T01:21:21.822Z,0.00
2019-04-14T01:22:22.705Z,0.00
2019-04-14T01:23:21.615Z,0.00
2019-04-14T01:24:22.730Z,0.00
2019-04-14T01:25:21.575Z,0.00
2019-04-14T01:26:22.540Z,0.00
2019-04-14T01:27:21.458Z,0.00
2019-04-14T01:28:22.247Z,0.00
2019-04-14T01:29:21.432Z,0.00
2019-04-14T01:30:21.980Z,0.00
2019-04-14T01:31:21.475Z,0.00
2019-04-14T01:32:21.907Z,0.00
2019-04-14T01:33:21.393Z,0.00
2019-04-14T01:34:21.674Z,0.00
2019-04-14T01:35:22.653Z,0.00
2019-04-14T01:36:21.390Z,0.00
2019-04-14T01:37:22.480Z,0.00
2019-04-14T01:38:21.360Z,0.00
2019-04-14T01:39:22.164Z,0.00
2019-04-14T01:40:21.342Z,0.00
2019-04-14T01:41:21.689Z,0.00
2019-04-14T01:42:22.311Z,0.00
2019-04-14T01:43:21.391Z,0.00
2019-04-14T01:44:22.097Z,0.00
2019-04-14T01:45:21.268Z,0.00
2019-04-14T01:46:25.942Z,0.00
2019-04-14T01:47:22.736Z,0.00
2019-04-14T01:48:21.451Z,0.00
2019-04-14T01:49:22.446Z,0.00
2019-04-14T01:50:21.321Z,0.00
2019-04-14T01:51:22.198Z,0.00
2019-04-14T01:52:21.205Z,0.00
2019-04-14T01:53:21.170Z,0.00
2019-04-14T01:54:21.436Z,0.00
2019-04-14T01:55:22.222Z,0.00
2019-04-14T01:56:21.148Z,0.00
2019-04-14T01:57:22.070Z,0.00
2019-04-14T01:58:21.118Z,0.00
2019-04-14T01:59:21.962Z,0.00
2019-04-14T02:00:21.093Z,0.00
2019-04-14T02:01:21.734Z,0.00
2019-04-14T02:02:21.095Z,0.00
2019-04-14T02:03:21.689Z,0.00
2019-04-14T02:04:21.053Z,0.00
2019-04-14T02:05:21.394Z,0.00
2019-04-14T02:06:22.247Z,0.00
2019-04-14T02:07:21.252Z,0.00
2019-04-14T02:08:22.008Z,0.00
2019-04-14T02:09:20.996Z,0.00
2019-04-14T02:10:21.680Z,0.00
2019-04-14T02:11:20.977Z,0.00
2019-04-14T02:12:21.442Z,0.00
2019-04-14T02:13:20.983Z,0.00
2019-04-14T02:14:21.226Z,0.00
2019-04-14T02:15:22.172Z,0.00
2019-04-14T02:16:30.201Z,0.00
2019-04-14T02:17:22.096Z,0.00
2019-04-14T02:18:20.989Z,0.00
2019-04-14T02:19:21.977Z,0.00
2019-04-14T02:20:20.880Z,0.00
2019-04-14T02:21:21.593Z,0.00
2019-04-14T02:22:20.867Z,0.00
2019-04-14T02:23:21.478Z,0.00
2019-04-14T02:24:21.988Z,0.00
2019-04-14T02:25:21.043Z,0.00
2019-04-14T02:26:21.975Z,0.00
2019-04-14T02:27:21.058Z,0.00
2019-04-14T02:28:22.022Z,0.00
2019-04-14T02:29:21.160Z,0.00
2019-04-14T02:30:26.194Z,0.00
2019-04-14T02:31:51.325Z,0.00
2019-04-14T02:32:49.450Z,0.00
2019-04-14T02:33:50.535Z,0.00
2019-04-14T02:34:49.390Z,0.00
2019-04-14T02:36:05.755Z,0.00
2019-04-14T02:36:54.064Z,0.00
2019-04-14T02:37:58.952Z,0.00
2019-04-14T02:40:01.631Z,0.00
2019-04-14T02:40:55.563Z,0.00
2019-04-14T02:42:46.592Z,0.00
2019-04-14T02:43:52.304Z,0.00
2019-04-14T02:45:50.432Z,0.00
2019-04-14T02:48:52.832Z,0.00
2019-04-14T02:49:51.211Z,0.00
2019-04-14T02:50:48.067Z,0.00
2019-04-14T02:51:50.207Z,0.00
2019-04-14T02:53:00.543Z,0.00
2019-04-14T02:53:49.778Z,0.00
2019-04-14T02:55:49.238Z,0.00
2019-04-14T02:57:02.091Z,0.00
2019-04-14T02:57:44.996Z,0.00
2019-04-14T03:00:47.899Z,0.00
2019-04-14T03:01:55.344Z,0.00
2019-04-14T03:02:44.456Z,0.00
2019-04-14T03:03:48.892Z,0.00
2019-04-14T03:04:50.013Z,0.00
2019-04-14T03:06:50.258Z,0.00
2019-04-14T03:07:51.568Z,0.00
2019-04-14T03:08:52.102Z,0.00
2019-04-14T03:10:47.312Z,0.00
2019-04-14T03:11:48.946Z,0.00
2019-04-14T03:12:49.156Z,0.00
2019-04-14T03:13:51.474Z,0.00
2019-04-14T03:14:49.660Z,0.00
2019-04-14T03:15:53.800Z,0.00
2019-04-14T03:17:00.530Z,0.00
2019-04-14T03:17:58.291Z,0.00
2019-04-14T03:18:47.224Z,0.00
2019-04-14T03:19:56.826Z,0.00
2019-04-14T03:20:45.622Z,0.00
2019-04-14T03:22:55.852Z,0.00
2019-04-14T03:23:48.570Z,0.00
2019-04-14T03:24:42.160Z,0.00
2019-04-14T03:25:41.391Z,0.00
2019-04-14T03:26:51.648Z,0.00
2019-04-14T03:27:50.216Z,0.00
2019-04-14T03:29:45.065Z,0.00
2019-04-14T03:31:59.641Z,0.00
2019-04-14T03:34:18.197Z,0.00
2019-04-14T03:37:54.097Z,0.00
2019-04-14T03:38:55.015Z,0.00
2019-04-14T03:39:49.615Z,0.00
2019-04-14T03:40:50.502Z,0.00
2019-04-14T03:41:50.546Z,0.00
2019-04-14T03:42:54.223Z,0.00
2019-04-14T03:43:42.552Z,0.00
2019-04-14T03:46:50.780Z,0.00
2019-04-14T03:48:04.008Z,0.00
2019-04-14T03:50:47.924Z,0.00
2019-04-14T03:52:05.972Z,0.00
2019-04-14T03:52:50.069Z,0.00
2019-04-14T03:53:41.292Z,0.00
2019-04-14T03:54:40.236Z,0.00
2019-04-14T03:55:31.847Z,0.00
2019-04-14T03:56:21.653Z,0.00
2019-04-14T03:57:19.803Z,0.00
2019-04-14T03:58:20.498Z,0.00
2019-04-14T03:59:19.830Z,0.00
2019-04-14T04:00:20.226Z,0.00
2019-04-14T04:01:19.791Z,0.00
2019-04-14T04:02:20.503Z,0.00
2019-04-14T04:03:19.766Z,0.00
2019-04-14T04:04:20.540Z,0.00
2019-04-14T04:05:19.715Z,0.00
2019-04-14T04:06:20.335Z,0.00
2019-04-14T04:07:19.696Z,0.00
2019-04-14T04:08:20.126Z,0.00
2019-04-14T04:09:19.670Z,0.00
2019-04-14T04:10:19.661Z,0.00
2019-04-14T04:11:19.683Z,0.00
2019-04-14T04:12:20.390Z,0.00
2019-04-14T04:13:19.628Z,0.00
2019-04-14T04:14:20.337Z,0.00
2019-04-14T04:15:19.604Z,0.00
2019-04-14T04:16:20.198Z,0.00
2019-04-14T04:17:19.609Z,0.00
2019-04-14T04:18:19.874Z,0.00
2019-04-14T04:19:20.085Z,0.00
2019-04-14T04:20:19.686Z,0.00
2019-04-14T04:21:20.652Z,0.00
2019-04-14T04:22:19.579Z,0.00
2019-04-14T04:23:20.479Z,0.00
2019-04-14T04:24:19.504Z,0.00
2019-04-14T04:25:20.421Z,0.00
2019-04-14T04:26:19.519Z,0.00
2019-04-14T04:27:20.055Z,0.00
2019-04-14T04:28:19.472Z,4.00
2019-04-14T04:29:20.120Z,4.00
2019-04-14T04:30:19.436Z,0.00
2019-04-14T04:31:19.881Z,0.00
2019-04-14T04:32:20.562Z,0.00
2019-04-14T04:33:19.873Z,0.00
2019-04-14T04:34:20.294Z,4.00
2019-04-14T04:35:19.672Z,4.00
2019-04-14T04:36:20.315Z,4.00
2019-04-14T04:37:19.383Z,0.00
2019-04-14T04:38:20.186Z,0.00
2019-04-14T04:39:19.354Z,4.00
2019-04-14T04:40:20.078Z,4.00
2019-04-14T04:41:19.329Z,4.00
2019-04-14T04:42:19.839Z,4.00
2019-04-14T04:43:19.304Z,4.00
2019-04-14T04:44:20.178Z,4.00
2019-04-14T04:45:19.279Z,4.00
2019-04-14T04:46:19.767Z,4.00
2019-04-14T04:47:19.272Z,8.00
2019-04-14T04:48:19.623Z,4.00
2019-04-14T04:49:23.067Z,8.00
2019-04-14T04:50:21.331Z,4.00
2019-04-14T04:51:20.267Z,8.00
2019-04-14T04:52:19.239Z,8.00
2019-04-14T04:53:20.183Z,8.00
2019-04-14T04:54:19.244Z,8.00
2019-04-14T04:55:19.815Z,8.00
2019-04-14T04:56:19.149Z,12.00
2019-04-14T04:57:19.914Z,12.00
2019-04-14T04:58:19.532Z,8.00
2019-04-14T04:59:19.202Z,8.00
2019-04-14T05:00:19.969Z,12.00
2019-04-14T05:01:19.091Z,12.00
2019-04-14T05:02:19.803Z,12.00
2019-04-14T05:03:19.099Z,12.00
2019-04-14T05:04:19.844Z,12.00
2019-04-14T05:05:19.046Z,16.00
2019-04-14T05:06:21.665Z,16.00
2019-04-14T05:07:19.025Z,16.00
2019-04-14T05:08:19.554Z,20.00
2019-04-14T05:09:19.007Z,20.00
2019-04-14T05:10:19.536Z,20.00
2019-04-14T05:11:18.980Z,20.00
2019-04-14T05:12:19.577Z,20.00
2019-04-14T05:13:18.958Z,20.00
2019-04-14T05:14:19.484Z,20.00
2019-04-14T05:15:18.944Z,24.00
2019-04-14T05:16:19.241Z,24.00
2019-04-14T05:17:19.160Z,24.00
2019-04-14T05:18:20.018Z,28.00
2019-04-14T05:19:25.700Z,24.00
2019-04-14T05:20:20.324Z,24.00
2019-04-14T05:21:19.213Z,28.00
2019-04-14T05:22:20.526Z,28.00
2019-04-14T05:23:19.148Z,28.00
2019-04-14T05:24:19.926Z,28.00
2019-04-14T05:25:19.078Z,32.00
2019-04-14T05:26:19.808Z,32.00
2019-04-14T05:27:18.932Z,32.00
2019-04-14T05:28:19.834Z,36.00
2019-04-14T05:29:19.063Z,36.00
2019-04-14T05:30:19.703Z,36.00
2019-04-14T05:31:18.770Z,36.00
2019-04-14T05:32:19.452Z,40.00
2019-04-14T05:33:18.743Z,40.00
2019-04-14T05:34:19.462Z,36.00
2019-04-14T05:35:18.743Z,40.00
2019-04-14T05:36:19.301Z,40.00
2019-04-14T05:37:18.695Z,44.00
2019-04-14T05:38:19.053Z,44.00
2019-04-14T05:39:19.882Z,40.00
2019-04-14T05:40:18.930Z,44.00
2019-04-14T05:41:18.648Z,44.00
2019-04-14T05:42:22.269Z,44.00
2019-04-14T05:43:31.282Z,48.00
2019-04-14T05:44:20.731Z,48.00
2019-04-14T05:45:19.760Z,48.00
2019-04-14T05:46:18.615Z,48.00
2019-04-14T05:47:19.648Z,52.00
2019-04-14T05:48:18.568Z,52.00
2019-04-14T05:49:28.541Z,52.00
2019-04-14T05:50:20.294Z,52.00
2019-04-14T05:51:20.599Z,52.00
2019-04-14T05:52:18.576Z,56.00
2019-04-14T05:53:19.607Z,56.00
2019-04-14T05:54:18.586Z,56.00
2019-04-14T05:55:19.790Z,56.00
2019-04-14T05:56:18.678Z,56.00
2019-04-14T05:57:18.486Z,56.00
2019-04-14T05:58:18.624Z,60.00
2019-04-14T05:59:18.449Z,60.00
2019-04-14T06:00:19.098Z,60.00
2019-04-14T06:01:18.425Z,60.00
2019-04-14T06:02:18.424Z,64.00
2019-04-14T06:03:19.113Z,64.00
2019-04-14T06:04:18.404Z,68.00
2019-04-14T06:05:18.969Z,68.00
2019-04-14T06:06:18.372Z,64.00
2019-04-14T06:07:18.363Z,68.00
2019-04-14T06:08:18.358Z,68.00
2019-04-14T06:09:18.340Z,72.00
2019-04-14T06:10:18.363Z,72.00
2019-04-14T06:11:18.324Z,72.00
2019-04-14T06:12:18.303Z,76.00
2019-04-14T06:13:18.299Z,76.00
2019-04-14T06:14:18.283Z,76.00
2019-04-14T06:15:18.273Z,76.00
2019-04-14T06:16:18.282Z,80.00
2019-04-14T06:17:18.254Z,80.00
2019-04-14T06:18:18.237Z,80.00
2019-04-14T06:19:18.224Z,80.00
2019-04-14T06:20:18.222Z,84.00
2019-04-14T06:21:18.227Z,80.00
2019-04-14T06:22:18.199Z,84.00
2019-04-14T06:23:18.192Z,84.00
2019-04-14T06:24:18.180Z,84.00
2019-04-14T06:25:18.161Z,88.00
2019-04-14T06:26:18.205Z,88.00
2019-04-14T06:27:18.143Z,88.00
2019-04-14T06:28:18.133Z,92.00
2019-04-14T06:29:18.117Z,92.00
2019-04-14T06:30:18.109Z,92.00
2019-04-14T06:31:18.090Z,92.00
2019-04-14T06:32:18.166Z,96.00
2019-04-14T06:33:18.069Z,92.00
2019-04-14T06:34:18.078Z,96.00
2019-04-14T06:35:18.048Z,100.00
2019-04-14T06:36:18.084Z,100.00
2019-04-14T06:37:18.051Z,96.00
2019-04-14T06:38:18.015Z,100.00
2019-04-14T06:39:18.004Z,100.00
2019-04-14T06:40:17.995Z,104.00
2019-04-14T06:41:18.053Z,104.00
2019-04-14T06:42:17.968Z,104.00
2019-04-14T06:43:17.974Z,104.00
2019-04-14T06:44:17.946Z,104.00
2019-04-14T06:45:17.944Z,108.00
2019-04-14T06:46:17.969Z,112.00
2019-04-14T06:47:17.918Z,108.00
2019-04-14T06:48:17.902Z,112.00
2019-04-14T06:49:17.913Z,116.00
2019-04-14T06:50:17.884Z,116.00
2019-04-14T06:51:17.873Z,116.00
2019-04-14T06:52:17.897Z,116.00
2019-04-14T06:53:17.846Z,120.00
2019-04-14T06:54:17.834Z,116.00
2019-04-14T06:55:17.826Z,116.00
2019-04-14T06:56:17.817Z,120.00
2019-04-14T06:57:17.828Z,120.00
2019-04-14T06:58:17.794Z,124.00
2019-04-14T06:59:17.780Z,124.00
2019-04-14T07:00:17.772Z,124.00
2019-04-14T07:01:17.756Z,124.00
2019-04-14T07:02:17.770Z,124.00
2019-04-14T07:03:17.744Z,124.00
2019-04-14T07:04:17.727Z,132.00
2019-04-14T07:05:17.727Z,128.00
2019-04-14T07:06:17.709Z,132.00
2019-04-14T07:07:17.734Z,132.00
2019-04-14T07:08:17.685Z,132.00
2019-04-14T07:09:17.678Z,136.00
2019-04-14T07:10:17.656Z,136.00
2019-04-14T07:11:17.648Z,136.00
2019-04-14T07:12:17.803Z,140.00
2019-04-14T07:13:19.531Z,140.00
2019-04-14T07:14:17.615Z,136.00
2019-04-14T07:15:17.605Z,140.00
2019-04-14T07:16:17.589Z,136.00
2019-04-14T07:17:17.615Z,144.00
2019-04-14T07:18:17.572Z,144.00
2019-04-14T07:19:17.562Z,148.00
2019-04-14T07:20:17.560Z,148.00
2019-04-14T07:21:17.543Z,148.00
2019-04-14T07:22:17.559Z,148.00
2019-04-14T07:23:17.517Z,148.00
2019-04-14T07:24:17.519Z,152.00
2019-04-14T07:25:17.505Z,152.00
2019-04-14T07:26:17.482Z,156.00
2019-04-14T07:27:17.476Z,156.00
2019-04-14T07:28:17.503Z,160.00
2019-04-14T07:29:17.451Z,160.00
2019-04-14T07:30:17.439Z,160.00
2019-04-14T07:31:17.431Z,164.00
2019-04-14T07:32:17.460Z,160.00
2019-04-14T07:33:17.430Z,164.00
2019-04-14T07:34:17.432Z,164.00
2019-04-14T07:35:17.382Z,168.00
2019-04-14T07:36:17.380Z,168.00
2019-04-14T07:37:19.055Z,168.00
2019-04-14T07:38:17.379Z,172.00
2019-04-14T07:39:17.371Z,168.00
2019-04-14T07:40:17.332Z,176.00
2019-04-14T07:41:17.316Z,172.00
2019-04-14T07:42:17.317Z,172.00
2019-04-14T07:43:17.299Z,176.00
2019-04-14T07:44:17.311Z,180.00
2019-04-14T07:45:17.275Z,180.00
2019-04-14T07:46:17.270Z,180.00
2019-04-14T07:47:17.262Z,184.00
2019-04-14T07:48:17.254Z,184.00
2019-04-14T07:49:17.437Z,188.00
2019-04-14T07:50:17.217Z,188.00
2019-04-14T07:51:17.204Z,192.00
2019-04-14T07:52:17.198Z,188.00
2019-04-14T07:53:17.187Z,192.00
2019-04-14T07:54:17.179Z,192.00
2019-04-14T07:55:17.240Z,192.00
2019-04-14T07:56:17.149Z,196.00
2019-04-14T07:57:17.137Z,196.00
2019-04-14T07:58:17.164Z,196.00
2019-04-14T07:59:17.118Z,196.00
2019-04-14T08:00:17.108Z,200.00
2019-04-14T08:01:17.103Z,200.00
2019-04-14T08:02:17.092Z,204.00
2019-04-14T08:03:17.115Z,204.00
2019-04-14T08:04:17.061Z,204.00
2019-04-14T08:05:17.150Z,208.00
2019-04-14T08:06:17.045Z,204.00
2019-04-14T08:07:17.035Z,208.00
2019-04-14T08:08:17.052Z,212.00
2019-04-14T08:09:17.056Z,212.00
2019-04-14T08:10:17.000Z,212.00
2019-04-14T08:11:16.990Z,212.00
2019-04-14T08:12:16.977Z,216.00
2019-04-14T08:13:16.962Z,216.00
2019-04-14T08:14:16.988Z,216.00
2019-04-14T08:15:16.977Z,220.00
2019-04-14T08:16:16.942Z,220.00
2019-04-14T08:17:16.917Z,224.00
2019-04-14T08:18:16.917Z,232.00
2019-04-14T08:19:16.933Z,228.00
2019-04-14T08:20:26.728Z,228.00
2019-04-14T08:21:17.873Z,228.00
2019-04-14T08:22:16.868Z,232.00
2019-04-14T08:23:16.868Z,232.00
2019-04-14T08:24:16.879Z,236.00
2019-04-14T08:25:16.835Z,236.00
2019-04-14T08:26:16.827Z,240.00
2019-04-14T08:27:16.818Z,240.00
2019-04-14T08:28:16.804Z,240.00
2019-04-14T08:29:16.819Z,248.00
2019-04-14T08:30:16.787Z,244.00
2019-04-14T08:31:16.779Z,248.00
2019-04-14T08:32:16.765Z,248.00
2019-04-14T08:33:16.755Z,248.00
2019-04-14T08:34:16.780Z,252.00
2019-04-14T08:35:16.722Z,256.00
2019-04-14T08:36:16.714Z,256.00
2019-04-14T08:37:16.713Z,260.00
2019-04-14T08:38:16.696Z,260.00
2019-04-14T08:39:16.719Z,260.00
2019-04-14T08:40:16.673Z,264.00
2019-04-14T08:41:16.654Z,264.00
2019-04-14T08:42:16.657Z,268.00
2019-04-14T08:43:16.640Z,268.00
2019-04-14T08:44:16.638Z,272.00
2019-04-14T08:45:16.647Z,276.00
2019-04-14T08:46:16.620Z,276.00
2019-04-14T08:47:16.589Z,276.00
2019-04-14T08:48:16.575Z,280.00
2019-04-14T08:49:16.578Z,280.00
2019-04-14T08:50:16.580Z,284.00
2019-04-14T08:51:16.556Z,284.00
2019-04-14T08:52:16.533Z,284.00
2019-04-14T08:53:16.529Z,288.00
2019-04-14T08:54:16.522Z,288.00
2019-04-14T08:55:16.533Z,292.00
2019-04-14T08:56:16.494Z,296.00
2019-04-14T08:57:16.488Z,296.00
2019-04-14T08:58:16.472Z,296.00
2019-04-14T08:59:16.458Z,300.00
2019-04-14T09:00:16.475Z,304.00
2019-04-14T09:01:16.461Z,304.00
2019-04-14T09:02:16.432Z,308.00
2019-04-14T09:03:16.422Z,308.00
2019-04-14T09:04:16.424Z,308.00
2019-04-14T09:05:16.419Z,312.00
2019-04-14T09:06:16.385Z,316.00
2019-04-14T09:07:16.368Z,316.00
2019-04-14T09:08:16.359Z,320.00
2019-04-14T09:09:16.345Z,324.00
2019-04-14T09:10:16.377Z,328.00
2019-04-14T09:11:16.352Z,324.00
2019-04-14T09:12:16.465Z,328.00
2019-04-14T09:13:16.301Z,328.00
2019-04-14T09:14:16.296Z,336.00
2019-04-14T09:15:16.303Z,332.00
2019-04-14T09:16:16.338Z,336.00
2019-04-14T09:17:16.261Z,336.00
2019-04-14T09:18:16.252Z,340.00
2019-04-14T09:19:16.243Z,336.00
2019-04-14T09:20:16.220Z,344.00
2019-04-14T09:21:16.205Z,348.00
2019-04-14T09:22:16.227Z,344.00
2019-04-14T09:23:16.198Z,348.00
2019-04-14T09:24:16.192Z,348.00
2019-04-14T09:25:16.170Z,348.00
2019-04-14T09:26:16.191Z,352.00
2019-04-14T09:27:16.179Z,356.00
2019-04-14T09:28:16.129Z,356.00
2019-04-14T09:29:16.144Z,360.00
2019-04-14T09:30:16.113Z,360.00
2019-04-14T09:31:16.137Z,348.00
2019-04-14T09:32:16.080Z,360.00
2019-04-14T09:33:16.076Z,364.00
2019-04-14T09:34:16.063Z,372.00
2019-04-14T09:35:16.054Z,372.00
2019-04-14T09:36:16.083Z,372.00
2019-04-14T09:37:16.071Z,380.00
2019-04-14T09:38:16.023Z,372.00
2019-04-14T09:39:16.016Z,376.00
2019-04-14T09:40:16.004Z,376.00
2019-04-14T09:41:16.027Z,380.00
2019-04-14T09:42:15.979Z,380.00
2019-04-14T09:43:16.011Z,384.00
2019-04-14T09:44:15.959Z,388.00
2019-04-14T09:45:15.963Z,392.00
2019-04-14T09:46:15.960Z,392.00
2019-04-14T09:47:15.930Z,388.00
2019-04-14T09:48:15.935Z,392.00
2019-04-14T09:49:15.891Z,392.00
2019-04-14T09:50:15.885Z,396.00
2019-04-14T09:51:15.953Z,396.00
2019-04-14T09:52:15.953Z,404.00
2019-04-14T09:53:15.872Z,404.00
2019-04-14T09:54:15.846Z,412.00
2019-04-14T09:55:15.890Z,412.00
2019-04-14T09:56:15.864Z,416.00
2019-04-14T09:57:15.822Z,420.00
2019-04-14T09:58:15.810Z,428.00
2019-04-14T09:59:15.799Z,424.00
2019-04-14T10:00:15.772Z,436.00
2019-04-14T10:01:15.763Z,428.00
2019-04-14T10:02:15.778Z,428.00
2019-04-14T10:03:15.757Z,440.00
2019-04-14T10:04:15.734Z,444.00
2019-04-14T10:05:15.726Z,440.00
2019-04-14T10:06:15.751Z,440.00
2019-04-14T10:07:15.712Z,448.00
2019-04-14T10:08:15.690Z,448.00
2019-04-14T10:09:15.675Z,444.00
2019-04-14T10:10:15.668Z,456.00
2019-04-14T10:11:15.660Z,460.00
2019-04-14T10:12:15.678Z,460.00
2019-04-14T10:13:15.667Z,472.00
2019-04-14T10:14:15.619Z,500.00
2019-04-14T10:15:15.628Z,488.00
2019-04-14T10:16:15.591Z,496.00
2019-04-14T10:17:15.619Z,480.00
2019-04-14T10:18:15.619Z,476.00
2019-04-14T10:19:15.582Z,384.00
2019-04-14T10:20:15.559Z,444.00
2019-04-14T10:21:17.530Z,476.00
2019-04-14T10:22:15.526Z,468.00
2019-04-14T10:23:15.528Z,432.00
2019-04-14T10:24:15.544Z,392.00
2019-04-14T10:25:15.499Z,372.00
2019-04-14T10:26:15.479Z,428.00
2019-04-14T10:27:15.498Z,452.00
2019-04-14T10:28:15.509Z,372.00
2019-04-14T10:29:15.474Z,420.00
2019-04-14T10:30:15.438Z,464.00
2019-04-14T10:31:15.426Z,464.00
2019-04-14T10:32:15.420Z,484.00
2019-04-14T10:33:15.420Z,468.00
2019-04-14T10:34:15.418Z,464.00
2019-04-14T10:35:15.379Z,428.00
2019-04-14T10:36:15.381Z,468.00
2019-04-14T10:37:15.362Z,420.00
2019-04-14T10:38:15.351Z,512.00
2019-04-14T10:39:15.380Z,504.00
2019-04-14T10:40:15.324Z,500.00
2019-04-14T10:41:15.310Z,488.00
2019-04-14T10:42:15.306Z,484.00
2019-04-14T10:43:15.300Z,508.00
2019-04-14T10:44:15.317Z,520.00
2019-04-14T10:45:18.130Z,524.00
2019-04-14T10:46:15.253Z,524.00
2019-04-14T10:47:15.246Z,536.00
2019-04-14T10:48:15.244Z,548.00
2019-04-14T10:49:15.251Z,556.00
2019-04-14T10:50:15.218Z,560.00
2019-04-14T10:51:15.209Z,572.00
2019-04-14T10:52:15.198Z,552.00
2019-04-14T10:53:15.179Z,560.00
2019-04-14T10:54:15.195Z,552.00
2019-04-14T10:55:15.162Z,556.00
2019-04-14T10:56:15.143Z,552.00
2019-04-14T10:57:15.170Z,536.00
2019-04-14T10:58:15.118Z,544.00
2019-04-14T10:59:15.137Z,532.00
2019-04-14T11:00:15.228Z,536.00
2019-04-14T11:01:15.089Z,544.00
2019-04-14T11:02:15.081Z,544.00
2019-04-14T11:03:15.067Z,420.00
2019-04-14T11:04:15.169Z,520.00
2019-04-14T11:05:15.045Z,524.00
2019-04-14T11:06:15.032Z,532.00
2019-04-14T11:07:15.029Z,524.00
2019-04-14T11:08:15.013Z,528.00
2019-04-14T11:09:15.032Z,528.00
2019-04-14T11:10:14.984Z,532.00
2019-04-14T11:11:14.978Z,536.00
2019-04-14T11:12:14.974Z,536.00
2019-04-14T11:13:14.973Z,548.00
2019-04-14T11:14:14.944Z,552.00
2019-04-14T11:15:15.580Z,592.00
2019-04-14T11:16:14.917Z,548.00
2019-04-14T11:17:14.914Z,540.00
2019-04-14T11:18:14.906Z,444.00
2019-04-14T11:19:14.906Z,428.00
2019-04-14T11:20:14.977Z,404.00
2019-04-14T11:21:14.880Z,396.00
2019-04-14T11:22:14.857Z,340.00
2019-04-14T11:23:14.855Z,304.00
2019-04-14T11:24:14.833Z,264.00
2019-04-14T11:25:14.845Z,256.00
2019-04-14T11:26:14.810Z,324.00
2019-04-14T11:27:14.829Z,428.00
2019-04-14T11:28:14.797Z,456.00
2019-04-14T11:29:14.781Z,492.00
2019-04-14T11:30:14.795Z,452.00
2019-04-14T11:31:14.751Z,384.00
2019-04-14T11:32:14.744Z,400.00
2019-04-14T11:33:14.749Z,428.00
2019-04-14T11:34:14.748Z,432.00
2019-04-14T11:35:16.468Z,452.00
2019-04-14T11:36:14.710Z,384.00
2019-04-14T11:37:14.717Z,352.00
2019-04-14T11:38:14.690Z,316.00
2019-04-14T11:39:14.664Z,280.00
2019-04-14T11:40:14.679Z,244.00
2019-04-14T11:41:14.656Z,228.00
2019-04-14T11:42:14.646Z,236.00
2019-04-14T11:43:14.627Z,268.00
2019-04-14T11:44:14.609Z,364.00
2019-04-14T11:45:14.643Z,496.00
2019-04-14T11:46:14.657Z,516.00
2019-04-14T11:47:16.263Z,520.00
2019-04-14T11:48:14.566Z,524.00
2019-04-14T11:49:14.550Z,572.00
2019-04-14T11:50:14.539Z,536.00
2019-04-14T11:51:14.560Z,332.00
2019-04-14T11:52:14.518Z,284.00
2019-04-14T11:53:14.512Z,260.00
2019-04-14T11:54:14.495Z,276.00
2019-04-14T11:55:14.479Z,268.00
2019-04-14T11:56:14.528Z,236.00
2019-04-14T11:57:14.463Z,272.00
2019-04-14T11:58:14.469Z,288.00
2019-04-14T11:59:14.433Z,344.00
2019-04-14T12:00:14.426Z,372.00
2019-04-14T12:01:14.509Z,392.00
2019-04-14T12:02:14.400Z,396.00
2019-04-14T12:03:14.409Z,368.00
2019-04-14T12:04:14.382Z,352.00
2019-04-14T12:05:14.371Z,352.00
2019-04-14T12:06:14.393Z,388.00
2019-04-14T12:07:14.350Z,436.00
2019-04-14T12:08:14.340Z,456.00
2019-04-14T12:09:14.329Z,348.00
2019-04-14T12:10:14.321Z,344.00
2019-04-14T12:11:14.330Z,504.00
2019-04-14T12:12:14.288Z,376.00
2019-04-14T12:13:14.282Z,388.00
2019-04-14T12:14:14.278Z,336.00
2019-04-14T12:15:16.535Z,304.00
2019-04-14T12:16:14.275Z,288.00
2019-04-14T12:17:14.238Z,304.00
2019-04-14T12:18:14.230Z,316.00
2019-04-14T12:19:14.265Z,332.00
2019-04-14T12:20:14.214Z,340.00
2019-04-14T12:21:14.231Z,360.00
2019-04-14T12:22:14.204Z,368.00
2019-04-14T12:23:16.079Z,380.00
2019-04-14T12:24:14.158Z,516.00
2019-04-14T12:25:14.146Z,500.00
2019-04-14T12:26:14.137Z,356.00
2019-04-14T12:27:14.143Z,316.00
2019-04-14T12:28:14.109Z,316.00
2019-04-14T12:29:14.252Z,344.00
2019-04-14T12:30:14.089Z,364.00
2019-04-14T12:31:15.240Z,360.00
2019-04-14T12:32:15.099Z,320.00
2019-04-14T12:33:14.054Z,284.00
2019-04-14T12:34:14.193Z,248.00
2019-04-14T12:35:14.054Z,216.00
2019-04-14T12:36:14.023Z,188.00
2019-04-14T12:37:14.055Z,172.00
2019-04-14T12:38:13.997Z,156.00
2019-04-14T12:39:14.019Z,152.00
2019-04-14T12:40:13.995Z,160.00
2019-04-14T12:41:13.988Z,184.00
2019-04-14T12:42:13.996Z,224.00
2019-04-14T12:43:13.964Z,324.00
2019-04-14T12:44:13.932Z,260.00
2019-04-14T12:45:13.925Z,268.00
2019-04-14T12:46:13.921Z,280.00
2019-04-14T12:47:13.920Z,296.00
2019-04-14T12:48:13.900Z,392.00
2019-04-14T12:49:13.884Z,344.00
2019-04-14T12:50:13.873Z,428.00
2019-04-14T12:51:13.856Z,444.00
2019-04-14T12:52:21.033Z,312.00
2019-04-14T12:53:14.908Z,248.00
2019-04-14T12:54:14.016Z,224.00
2019-04-14T12:55:13.806Z,204.00
2019-04-14T12:56:13.795Z,216.00
2019-04-14T12:57:13.789Z,224.00
2019-04-14T12:58:13.792Z,244.00
2019-04-14T12:59:13.769Z,260.00
2019-04-14T13:00:13.753Z,272.00
2019-04-14T13:01:13.737Z,308.00
2019-04-14T13:02:13.767Z,408.00
2019-04-14T13:03:13.746Z,428.00
2019-04-14T13:04:13.704Z,432.00
2019-04-14T13:05:13.690Z,404.00
2019-04-14T13:06:13.695Z,352.00
2019-04-14T13:07:13.675Z,396.00
2019-04-14T13:08:13.709Z,280.00
2019-04-14T13:09:14.696Z,268.00